createdAt,value
2018-12-14T00:01:46.791Z,14.43
2018-12-14T00:04:16.445Z,15.00
2018-12-14T00:06:46.120Z,15.30
2018-12-14T00:09:13.739Z,13.97
2018-12-14T00:11:45.550Z,13.97
2018-12-14T00:14:11.022Z,14.30
2018-12-14T00:16:38.718Z,15.93
2018-12-14T00:19:06.442Z,15.00
2018-12-14T00:21:34.125Z,15.43
2018-12-14T00:24:01.896Z,13.87
2018-12-14T00:26:29.722Z,14.00
2018-12-14T00:28:57.331Z,14.80
2018-12-14T00:31:24.959Z,14.53
2018-12-14T00:33:52.634Z,14.47
2018-12-14T00:36:20.297Z,13.87
2018-12-14T00:38:47.991Z,15.13
2018-12-14T00:41:15.671Z,14.47
2018-12-14T00:43:43.363Z,15.93
2018-12-14T00:46:11.050Z,14.37
2018-12-14T00:48:38.670Z,13.67
2018-12-14T00:51:06.310Z,13.57
2018-12-14T00:53:33.974Z,13.73
2018-12-14T00:56:01.578Z,13.30
2018-12-14T00:58:29.202Z,13.53
2018-12-14T01:00:56.790Z,13.80
2018-12-14T01:03:24.370Z,13.57
2018-12-14T01:05:51.972Z,15.27
2018-12-14T01:08:19.618Z,14.47
2018-12-14T01:10:47.198Z,16.57
2018-12-14T01:13:14.834Z,14.30
2018-12-14T01:15:42.438Z,15.70
2018-12-14T01:18:10.081Z,14.07
2018-12-14T01:20:37.770Z,14.53
2018-12-14T01:23:05.431Z,14.83
2018-12-14T01:25:33.083Z,15.40
2018-12-14T01:28:00.667Z,15.23
2018-12-14T01:30:28.279Z,15.37
2018-12-14T01:32:55.912Z,13.37
2018-12-14T01:35:23.499Z,14.90
2018-12-14T01:37:52.111Z,15.07
2018-12-14T01:40:19.735Z,14.63
2018-12-14T01:42:47.371Z,15.67
2018-12-14T01:45:14.987Z,14.80
2018-12-14T01:47:42.647Z,12.97
2018-12-14T01:50:11.289Z,15.37
2018-12-14T01:52:40.239Z,13.43
2018-12-14T01:55:08.057Z,14.47
2018-12-14T01:57:35.901Z,13.80
2018-12-14T02:00:03.825Z,14.87
2018-12-14T02:02:31.433Z,14.57
2018-12-14T02:04:59.058Z,14.90
2018-12-14T02:07:26.717Z,13.77
2018-12-14T02:09:54.375Z,14.97
2018-12-14T02:12:22.059Z,16.23
2018-12-14T02:14:49.754Z,15.43
2018-12-14T02:17:17.338Z,15.47
2018-12-14T02:19:44.990Z,14.57
2018-12-14T02:22:12.610Z,16.33
2018-12-14T02:24:40.243Z,14.33
2018-12-14T02:27:07.842Z,17.37
2018-12-14T02:29:35.442Z,16.00
2018-12-14T02:32:03.298Z,16.27
2018-12-14T02:34:31.029Z,13.20
2018-12-14T02:36:58.645Z,16.43
2018-12-14T02:39:26.258Z,16.43
2018-12-14T02:41:53.888Z,16.87
2018-12-14T02:44:21.465Z,15.57
2018-12-14T02:46:49.132Z,17.03
2018-12-14T02:49:16.772Z,13.73
2018-12-14T02:51:44.441Z,15.50
2018-12-14T02:54:12.077Z,15.47
2018-12-14T02:56:39.742Z,15.57
2018-12-14T02:59:07.783Z,15.40
2018-12-14T03:01:35.441Z,16.70
2018-12-14T03:04:03.070Z,15.97
2018-12-14T03:06:30.725Z,15.47
2018-12-14T03:08:58.379Z,17.97
2018-12-14T03:11:26.098Z,18.00
2018-12-14T03:13:53.785Z,16.23
2018-12-14T03:16:21.559Z,15.63
2018-12-14T03:18:49.171Z,15.70
2018-12-14T03:21:16.922Z,15.73
2018-12-14T03:23:44.607Z,16.17
2018-12-14T03:26:12.249Z,16.07
2018-12-14T03:28:39.863Z,14.70
2018-12-14T03:31:07.431Z,14.73
2018-12-14T03:33:35.436Z,16.70
2018-12-14T03:36:03.109Z,17.47
2018-12-14T03:38:30.803Z,16.40
2018-12-14T03:40:58.526Z,17.53
2018-12-14T03:43:26.135Z,17.47
2018-12-14T03:45:53.799Z,16.20
2018-12-14T03:48:21.425Z,16.27
2018-12-14T03:50:49.215Z,15.23
2018-12-14T03:53:17.067Z,15.80
2018-12-14T03:55:44.901Z,15.07
2018-12-14T03:58:12.738Z,14.63
2018-12-14T04:00:41.168Z,15.93
2018-12-14T04:03:10.767Z,15.93
2018-12-14T04:05:44.193Z,16.93
2018-12-14T04:08:15.307Z,15.47
2018-12-14T04:10:55.703Z,14.53
2018-12-14T04:18:51.040Z,17.03
2018-12-14T04:21:29.557Z,14.40
2018-12-14T04:24:03.607Z,14.50
2018-12-14T04:26:31.798Z,15.80
2018-12-14T04:29:12.123Z,15.07
2018-12-14T04:32:02.929Z,14.03
2018-12-14T04:34:42.870Z,15.43
2018-12-14T04:37:12.146Z,15.10
2018-12-14T04:39:47.799Z,14.97
2018-12-14T04:42:15.738Z,14.87
2018-12-14T04:50:26.945Z,14.67
2018-12-14T04:53:02.698Z,13.07
2018-12-14T04:55:41.155Z,13.93
2018-12-14T04:58:10.079Z,16.20
2018-12-14T05:00:44.019Z,15.23
2018-12-14T05:03:12.164Z,14.63
2018-12-14T05:05:41.568Z,16.27
2018-12-14T05:08:19.363Z,15.27
2018-12-14T05:11:06.177Z,15.33
2018-12-14T05:13:57.239Z,15.87
2018-12-14T05:16:30.573Z,15.77
2018-12-14T05:19:03.937Z,16.13
2018-12-14T05:26:57.127Z,15.57
2018-12-14T05:32:04.765Z,15.03
2018-12-14T05:34:39.101Z,15.53
2018-12-14T05:37:13.092Z,16.73
2018-12-14T05:39:46.601Z,13.30
2018-12-14T05:45:24.997Z,15.23
2018-12-14T05:47:52.686Z,15.50
2018-12-14T05:50:20.310Z,14.83
2018-12-14T05:52:47.956Z,16.37
2018-12-14T05:55:15.636Z,16.40
2018-12-14T05:57:43.212Z,14.80
2018-12-14T06:00:12.618Z,15.27
2018-12-14T06:02:40.265Z,15.63
2018-12-14T06:05:07.904Z,14.63
2018-12-14T06:07:35.590Z,13.50
2018-12-14T06:10:03.828Z,14.83
2018-12-14T06:12:31.609Z,15.03
2018-12-14T06:14:59.178Z,15.27
2018-12-14T06:17:26.766Z,13.87
2018-12-14T06:19:54.490Z,12.80
2018-12-14T06:22:22.057Z,13.93
2018-12-14T06:24:49.633Z,15.03
2018-12-14T06:27:17.346Z,14.23
2018-12-14T06:29:44.904Z,14.03
2018-12-14T06:32:12.665Z,13.43
2018-12-14T06:34:40.610Z,14.27
2018-12-14T06:37:08.527Z,14.53
2018-12-14T06:39:36.098Z,15.00
2018-12-14T06:42:04.212Z,12.67
2018-12-14T06:44:31.832Z,13.90
2018-12-14T06:46:59.423Z,14.27
2018-12-14T06:49:27.031Z,14.83
2018-12-14T06:51:54.625Z,14.27
2018-12-14T06:54:22.517Z,13.67
2018-12-14T06:56:50.101Z,14.27
2018-12-14T06:59:17.743Z,14.63
2018-12-14T07:01:45.417Z,14.73
2018-12-14T07:04:13.103Z,12.97
2018-12-14T07:06:40.761Z,14.80
2018-12-14T07:09:08.452Z,14.00
2018-12-14T07:11:37.966Z,14.60
2018-12-14T07:14:05.562Z,14.43
2018-12-14T07:16:33.212Z,14.33
2018-12-14T07:19:00.813Z,13.03
2018-12-14T07:21:28.445Z,14.20
2018-12-14T07:23:56.119Z,13.07
2018-12-14T07:26:23.736Z,15.13
2018-12-14T07:28:52.578Z,13.37
2018-12-14T07:31:20.202Z,13.90
2018-12-14T07:33:47.823Z,13.23
2018-12-14T07:36:16.388Z,12.67
2018-12-14T07:38:48.084Z,14.10
2018-12-14T07:41:14.302Z,13.50
2018-12-14T07:43:42.115Z,14.03
2018-12-14T07:46:09.683Z,13.07
2018-12-14T07:48:37.323Z,13.03
2018-12-14T07:51:04.913Z,12.40
2018-12-14T07:53:32.503Z,12.47
2018-12-14T07:56:00.227Z,12.93
2018-12-14T07:58:27.848Z,12.53
2018-12-14T08:00:55.600Z,12.17
2018-12-14T08:03:23.282Z,12.00
2018-12-14T08:05:50.953Z,11.77
2018-12-14T08:08:18.551Z,12.30
2018-12-14T08:10:46.135Z,13.07
2018-12-14T08:13:15.328Z,12.73
2018-12-14T08:15:42.989Z,13.37
2018-12-14T08:18:10.643Z,12.47
2018-12-14T08:20:38.271Z,12.57
2018-12-14T08:23:06.042Z,12.93
2018-12-14T08:25:33.670Z,12.83
2018-12-14T08:28:01.250Z,12.03
2018-12-14T08:30:29.024Z,12.77
2018-12-14T08:32:56.711Z,11.67
2018-12-14T08:35:24.314Z,11.37
2018-12-14T08:37:51.893Z,10.90
2018-12-14T08:40:20.483Z,11.00
2018-12-14T08:42:48.160Z,12.63
2018-12-14T08:45:16.228Z,13.13
2018-12-14T08:47:43.953Z,15.17
2018-12-14T08:50:11.551Z,12.50
2018-12-14T08:52:39.134Z,11.73
2018-12-14T08:55:06.897Z,12.13
2018-12-14T08:57:34.448Z,12.43
2018-12-14T09:00:02.099Z,12.47
2018-12-14T09:02:30.724Z,11.27
2018-12-14T09:04:58.313Z,11.77
2018-12-14T09:07:25.877Z,9.97
2018-12-14T09:09:53.475Z,11.77
2018-12-14T09:12:21.107Z,11.63
2018-12-14T09:14:48.646Z,11.03
2018-12-14T09:17:17.185Z,11.40
2018-12-14T09:19:44.764Z,12.20
2018-12-14T09:22:12.396Z,12.67
2018-12-14T09:24:39.989Z,13.00
2018-12-14T09:27:07.691Z,12.70
2018-12-14T09:29:35.315Z,12.47
2018-12-14T09:32:03.025Z,12.47
2018-12-14T09:34:31.761Z,11.80
2018-12-14T09:36:59.328Z,12.00
2018-12-14T09:39:26.871Z,13.20
2018-12-14T09:41:54.485Z,12.00
2018-12-14T09:44:22.068Z,11.53
2018-12-14T09:46:49.675Z,12.17
2018-12-14T09:49:17.237Z,11.13
2018-12-14T09:51:45.326Z,11.63
2018-12-14T09:54:12.994Z,12.30
2018-12-14T09:56:42.279Z,11.50
2018-12-14T09:59:09.920Z,13.13
2018-12-14T10:01:37.585Z,11.97
2018-12-14T10:04:05.282Z,12.93
2018-12-14T10:06:32.869Z,12.70
2018-12-14T10:09:00.450Z,13.73
2018-12-14T10:11:28.097Z,15.03
2018-12-14T10:14:00.763Z,12.30
2018-12-14T10:16:25.434Z,11.80
2018-12-14T10:18:53.385Z,12.00
2018-12-14T10:21:20.997Z,12.20
2018-12-14T10:23:48.622Z,14.67
2018-12-14T10:26:16.225Z,12.63
2018-12-14T10:28:43.838Z,13.20
2018-12-14T10:31:11.500Z,11.03
2018-12-14T10:33:39.133Z,13.30
2018-12-14T10:36:07.766Z,12.77
2018-12-14T10:38:35.437Z,14.30
2018-12-14T10:41:03.181Z,15.17
2018-12-14T10:43:30.777Z,13.20
2018-12-14T10:45:58.806Z,14.37
2018-12-14T10:48:27.578Z,12.70
2018-12-14T10:50:55.203Z,14.00
2018-12-14T10:53:22.874Z,13.03
2018-12-14T10:55:50.435Z,14.57
2018-12-14T10:58:18.033Z,14.23
2018-12-14T11:00:51.439Z,13.47
2018-12-14T11:03:19.031Z,13.63
2018-12-14T11:05:47.015Z,13.37
2018-12-14T11:08:14.639Z,14.00
2018-12-14T11:10:42.229Z,13.90
2018-12-14T11:13:09.822Z,15.10
2018-12-14T11:15:37.425Z,14.43
2018-12-14T11:18:05.125Z,14.33
2018-12-14T11:20:32.740Z,15.67
2018-12-14T11:23:00.371Z,15.93
2018-12-14T11:25:27.979Z,15.87
2018-12-14T11:27:56.179Z,16.50
2018-12-14T11:30:23.795Z,15.80
2018-12-14T11:32:51.449Z,15.47
2018-12-14T11:35:19.083Z,15.57
2018-12-14T11:37:46.665Z,16.00
2018-12-14T11:40:14.300Z,15.07
2018-12-14T11:42:41.919Z,16.07
2018-12-14T11:45:09.557Z,14.90
2018-12-14T11:47:37.266Z,16.87
2018-12-14T11:50:07.574Z,14.93
2018-12-14T11:52:35.237Z,16.90
2018-12-14T11:55:02.919Z,16.07
2018-12-14T11:57:30.540Z,15.67
2018-12-14T11:59:58.134Z,16.07
2018-12-14T12:02:25.734Z,14.70
2018-12-14T12:04:53.308Z,18.33
2018-12-14T12:07:20.844Z,15.13
2018-12-14T12:09:48.438Z,15.20
2018-12-14T12:12:16.036Z,17.03
2018-12-14T12:14:43.830Z,16.40
2018-12-14T12:17:11.468Z,14.53
2018-12-14T12:19:39.289Z,16.30
2018-12-14T12:22:07.011Z,14.93
2018-12-14T12:24:34.779Z,15.93
2018-12-14T12:27:02.541Z,14.13
2018-12-14T12:29:30.311Z,17.57
2018-12-14T12:31:58.064Z,18.63
2018-12-14T12:34:25.761Z,15.43
2018-12-14T12:36:53.467Z,17.77
2018-12-14T12:39:21.142Z,17.20
2018-12-14T12:41:48.929Z,17.97
2018-12-14T12:44:16.700Z,17.47
2018-12-14T12:46:44.461Z,17.57
2018-12-14T12:49:12.133Z,15.57
2018-12-14T12:51:39.982Z,16.23
2018-12-14T12:54:07.679Z,18.87
2018-12-14T12:56:35.727Z,19.40
2018-12-14T12:59:03.479Z,19.03
2018-12-14T13:01:31.482Z,17.60
2018-12-14T13:03:59.170Z,15.03
2018-12-14T13:06:26.917Z,18.37
2018-12-14T13:08:54.624Z,19.33
2018-12-14T13:11:22.315Z,15.93
2018-12-14T13:13:50.058Z,17.00
2018-12-14T13:16:17.798Z,19.30
2018-12-14T13:18:45.533Z,17.97
2018-12-14T13:21:13.277Z,18.10
2018-12-14T13:23:41.017Z,17.30
2018-12-14T13:26:08.750Z,18.80
2018-12-14T13:28:36.639Z,18.40
2018-12-14T13:31:04.349Z,18.13
2018-12-14T13:33:32.225Z,19.23
2018-12-14T13:36:00.014Z,17.87
2018-12-14T13:38:27.712Z,17.17
2018-12-14T13:40:55.485Z,17.67
2018-12-14T13:43:23.244Z,17.93
2018-12-14T13:45:51.003Z,18.30
2018-12-14T13:48:18.763Z,21.07
2018-12-14T13:50:47.551Z,18.60
2018-12-14T13:53:15.270Z,19.30
2018-12-14T13:55:43.042Z,17.67
2018-12-14T13:58:10.706Z,18.47
2018-12-14T14:00:38.497Z,18.10
2018-12-14T14:03:06.300Z,19.03
2018-12-14T14:05:34.223Z,17.97
2018-12-14T14:08:01.958Z,18.50
2018-12-14T14:10:29.623Z,17.77
2018-12-14T14:12:57.365Z,17.00
2018-12-14T14:15:39.025Z,19.53
2018-12-14T14:18:06.710Z,19.50
2018-12-14T14:20:39.450Z,17.83
2018-12-14T14:23:08.605Z,19.53
2018-12-14T14:25:36.529Z,17.40
2018-12-14T14:28:04.237Z,20.73
2018-12-14T14:30:31.943Z,20.50
2018-12-14T14:32:59.523Z,16.17
2018-12-14T14:35:27.120Z,16.90
2018-12-14T14:37:57.525Z,15.33
2018-12-14T14:40:24.745Z,16.97
2018-12-14T14:42:52.351Z,16.67
2018-12-14T14:45:19.979Z,16.67
2018-12-14T14:47:47.571Z,16.13
2018-12-14T14:50:17.184Z,15.33
2018-12-14T14:52:44.901Z,16.53
2018-12-14T14:55:12.525Z,16.27
2018-12-14T14:57:40.328Z,14.30
2018-12-14T15:00:08.490Z,15.80
2018-12-14T15:02:37.090Z,14.97
2018-12-14T15:05:05.484Z,15.53
2018-12-14T15:07:33.073Z,14.87
2018-12-14T15:10:00.762Z,14.90
2018-12-14T15:12:28.330Z,15.03
2018-12-14T15:14:55.953Z,15.90
2018-12-14T15:17:23.634Z,15.87
2018-12-14T15:19:51.262Z,15.73
2018-12-14T15:22:18.885Z,14.93
2018-12-14T15:24:46.569Z,14.63
2018-12-14T15:27:14.358Z,15.73
2018-12-14T15:29:42.050Z,13.90
2018-12-14T15:32:10.098Z,15.07
2018-12-14T15:34:37.817Z,17.33
2018-12-14T15:37:05.559Z,13.97
2018-12-14T15:39:33.378Z,15.10
2018-12-14T15:42:01.120Z,15.17
2018-12-14T15:44:28.911Z,16.53
2018-12-14T15:46:56.851Z,16.33
2018-12-14T15:49:24.754Z,18.43
2018-12-14T15:51:52.593Z,16.30
2018-12-14T15:54:20.322Z,16.47
2018-12-14T15:56:48.094Z,16.57
2018-12-14T15:59:15.893Z,16.53
2018-12-14T16:01:43.725Z,16.40
2018-12-14T16:04:11.433Z,16.73
2018-12-14T16:06:39.216Z,15.87
2018-12-14T16:09:08.009Z,16.27
2018-12-14T16:11:37.731Z,16.07
2018-12-14T16:14:05.792Z,15.43
2018-12-14T16:16:33.520Z,14.20
2018-12-14T16:19:01.328Z,15.73
2018-12-14T16:21:29.192Z,16.77
2018-12-14T16:23:56.929Z,13.23
2018-12-14T16:26:24.594Z,17.20
2018-12-14T16:28:52.305Z,15.27
2018-12-14T16:31:20.002Z,14.70
2018-12-14T16:33:47.652Z,15.80
2018-12-14T16:36:15.470Z,15.80
2018-12-14T16:38:43.199Z,14.67
2018-12-14T16:41:11.045Z,14.13
2018-12-14T16:43:38.769Z,15.63
2018-12-14T16:46:06.664Z,13.53
2018-12-14T16:48:34.381Z,14.77
2018-12-14T16:51:02.087Z,14.53
2018-12-14T16:53:31.923Z,20.07
2018-12-14T16:55:59.643Z,15.30
2018-12-14T16:58:27.330Z,21.40
2018-12-14T17:00:55.136Z,16.87
2018-12-14T17:03:22.957Z,15.00
2018-12-14T17:05:50.647Z,13.13
2018-12-14T17:08:18.483Z,12.87
2018-12-14T17:10:46.248Z,13.67
2018-12-14T17:13:13.952Z,13.70
2018-12-14T17:15:41.642Z,14.77
2018-12-14T17:18:09.400Z,16.90
2018-12-14T17:20:37.240Z,14.33
2018-12-14T17:23:04.904Z,15.27
2018-12-14T17:25:32.627Z,14.50
2018-12-14T17:28:00.383Z,15.43
2018-12-14T17:30:28.249Z,16.83
2018-12-14T17:32:55.979Z,15.63
2018-12-14T17:35:23.718Z,15.20
2018-12-14T17:37:51.546Z,14.70
2018-12-14T17:40:19.302Z,16.37
2018-12-14T17:42:49.996Z,19.77
2018-12-14T17:45:18.453Z,36.97
2018-12-14T17:47:46.188Z,23.03
2018-12-14T17:50:14.040Z,20.70
2018-12-14T17:52:42.074Z,26.17
2018-12-14T17:55:09.846Z,17.20
2018-12-14T17:57:37.777Z,15.20
2018-12-14T18:00:06.021Z,17.23
2018-12-14T18:02:33.866Z,17.73
2018-12-14T18:05:01.699Z,15.87
2018-12-14T18:07:29.701Z,14.60
2018-12-14T18:09:57.754Z,16.30
2018-12-14T18:12:25.699Z,15.07
2018-12-14T18:14:53.559Z,15.27
2018-12-14T18:17:21.497Z,15.27
2018-12-14T18:19:49.391Z,23.90
2018-12-14T18:22:17.679Z,16.00
2018-12-14T18:24:46.061Z,16.07
2018-12-14T18:27:14.069Z,16.50
2018-12-14T18:29:42.197Z,17.53
2018-12-14T18:32:10.009Z,18.83
2018-12-14T18:34:37.939Z,19.37
2018-12-14T18:37:05.819Z,14.40
2018-12-14T18:39:33.704Z,15.60
2018-12-14T18:42:01.663Z,15.83
2018-12-14T18:44:30.549Z,14.63
2018-12-14T18:46:58.708Z,14.37
2018-12-14T18:49:26.788Z,15.13
2018-12-14T18:51:54.899Z,13.93
2018-12-14T18:54:23.009Z,15.33
2018-12-14T18:56:51.030Z,14.70
2018-12-14T18:59:19.345Z,13.70
2018-12-14T19:01:47.524Z,14.80
2018-12-14T19:04:15.602Z,18.13
2018-12-14T19:06:43.757Z,17.43
2018-12-14T19:09:11.708Z,12.67
2018-12-14T19:11:40.614Z,12.70
2018-12-14T19:14:08.542Z,12.83
2018-12-14T19:16:36.997Z,12.60
2018-12-14T19:19:04.865Z,14.20
2018-12-14T19:21:32.885Z,15.63
2018-12-14T19:24:00.710Z,14.80
2018-12-14T19:26:28.728Z,14.13
2018-12-14T19:28:56.759Z,12.33
2018-12-14T19:31:24.709Z,15.47
2018-12-14T19:33:52.777Z,13.93
2018-12-14T19:36:21.622Z,14.37
2018-12-14T19:38:49.491Z,15.43
2018-12-14T19:41:17.551Z,14.03
2018-12-14T19:43:45.457Z,14.90
2018-12-14T19:46:13.291Z,14.17
2018-12-14T19:48:41.290Z,13.83
2018-12-14T19:51:09.162Z,14.47
2018-12-14T19:53:37.030Z,13.77
2018-12-14T19:56:04.957Z,13.90
2018-12-14T19:58:32.935Z,17.53
2018-12-14T20:01:00.889Z,17.50
2018-12-14T20:03:28.832Z,15.20
2018-12-14T20:05:56.711Z,14.63
2018-12-14T20:08:24.625Z,15.93
2018-12-14T20:10:52.619Z,15.90
2018-12-14T20:13:20.618Z,16.70
2018-12-14T20:15:48.556Z,15.93
2018-12-14T20:18:16.768Z,17.00
2018-12-14T20:20:44.778Z,18.83
2018-12-14T20:23:12.706Z,17.33
2018-12-14T20:25:40.640Z,16.97
2018-12-14T20:28:09.957Z,18.27
2018-12-14T20:30:40.084Z,17.10
2018-12-14T20:33:08.251Z,17.00
2018-12-14T20:35:36.254Z,16.50
2018-12-14T20:38:10.970Z,15.93
2018-12-14T20:40:38.957Z,19.83
2018-12-14T20:43:06.876Z,20.37
2018-12-14T20:45:34.806Z,20.30
2018-12-14T20:48:02.713Z,18.27
2018-12-14T20:50:30.637Z,19.30
2018-12-14T20:52:58.469Z,20.20
2018-12-14T20:55:26.897Z,19.67
2018-12-14T20:57:54.789Z,19.90
2018-12-14T21:00:22.685Z,19.13
2018-12-14T21:02:50.653Z,19.27
2018-12-14T21:05:18.718Z,20.73
2018-12-14T21:07:46.735Z,23.10
2018-12-14T21:10:15.635Z,21.83
2018-12-14T21:12:43.545Z,20.20
2018-12-14T21:15:11.640Z,20.17
2018-12-14T21:17:39.449Z,18.77
2018-12-14T21:20:08.827Z,22.57
2018-12-14T21:22:36.727Z,23.13
2018-12-14T21:25:05.365Z,20.97
2018-12-14T21:27:33.556Z,20.60
2018-12-14T21:30:02.013Z,18.27
2018-12-14T21:32:30.975Z,19.57
2018-12-14T21:34:58.784Z,19.43
2018-12-14T21:37:26.657Z,20.70
2018-12-14T21:39:54.533Z,21.10
2018-12-14T21:42:22.481Z,21.77
2018-12-14T21:44:50.447Z,20.40
2018-12-14T21:47:18.472Z,19.17
2018-12-14T21:49:46.348Z,23.27
2018-12-14T21:52:14.199Z,20.93
2018-12-14T21:54:42.033Z,20.43
2018-12-14T21:57:09.883Z,20.23
2018-12-14T21:59:37.711Z,22.77
2018-12-14T22:02:06.139Z,21.37
2018-12-14T22:04:34.355Z,20.50
2018-12-14T22:07:02.285Z,21.13
2018-12-14T22:09:30.285Z,22.90
2018-12-14T22:11:58.184Z,21.87
2018-12-14T22:14:26.088Z,22.70
2018-12-14T22:16:54.104Z,21.50
2018-12-14T22:19:22.014Z,20.40
2018-12-14T22:21:49.883Z,21.17
2018-12-14T22:24:17.740Z,20.80
2018-12-14T22:26:45.640Z,20.93
2018-12-14T22:29:13.819Z,21.03
2018-12-14T22:31:41.891Z,21.00
2018-12-14T22:34:09.997Z,21.23
2018-12-14T22:36:38.163Z,20.73
2018-12-14T22:39:07.171Z,19.23
2018-12-14T22:41:36.240Z,19.40
2018-12-14T22:44:04.271Z,19.40
2018-12-14T22:46:32.333Z,21.30
2018-12-14T22:49:00.162Z,22.27
2018-12-14T22:51:27.975Z,22.83
2018-12-14T22:53:55.929Z,20.03
2018-12-14T22:56:24.265Z,18.60
2018-12-14T22:58:53.154Z,20.43
2018-12-14T23:01:21.089Z,20.77
2018-12-14T23:03:48.898Z,20.63
2018-12-14T23:06:16.834Z,19.10
2018-12-14T23:08:45.784Z,21.37
2018-12-14T23:11:13.688Z,19.20
2018-12-14T23:13:41.401Z,20.43
2018-12-14T23:16:09.201Z,21.47
2018-12-14T23:18:37.390Z,22.50
2018-12-14T23:21:05.292Z,22.97
2018-12-14T23:23:33.116Z,19.90
2018-12-14T23:26:01.186Z,22.43
2018-12-14T23:28:29.018Z,21.63
2018-12-14T23:30:56.941Z,23.97
2018-12-14T23:33:24.794Z,21.07
2018-12-14T23:35:52.570Z,21.50
2018-12-14T23:38:20.329Z,21.47
2018-12-14T23:40:48.146Z,19.87
2018-12-14T23:43:15.985Z,21.00
2018-12-14T23:45:43.859Z,20.57
2018-12-14T23:48:11.630Z,22.87
2018-12-14T23:50:39.457Z,20.50
2018-12-14T23:53:07.413Z,22.73
2018-12-14T23:55:36.195Z,22.90
2018-12-14T23:58:04.041Z,24.23
